Loveville, MD

9:34 PM EDT on September 02, 2014 (GMT -0400)
Leonard's Grant | Change Station
CLOSE
Current Station
Personal Weather Station
Location: Leonardtown, MD
Elevation: 112 ft
Nearby Weather Stations

Elev 112 ft 38.32 °N, 76.64 °W | Updated 9 minutes ago

Partly Cloudy
Partly Cloudy
82.3 °F
Feels Like 88 °F
N
0.0
Wind Variable Wind from SSW
Gusts 4.0 mph

Today
High -- | Low -- °F
--% Chance of Precip.
Yesterday
High -- | Low -- °F
Precip. -- in
6:37 AM 7:35 PM
First Quarter, 57% visible
Pressure 29.91 in
Visibility 10.0 miles
Clouds Clear
Heat Index 88 °F
Dew Point 74 °F
Humidity 76%
Rainfall 0.00 in
Snow Depth Not available.
UV 0 out of 12
Pollen 9.80 out of 12
Air Quality Not available.
Flu Activity Not available.
METAR K2W6 030110Z AUTO 19003KT 10SM CLR 28/20 A2991 RMK AO1

More Conditions Fewer Conditions

Pressure 29.91 in
Visibility 10.0 miles
Clouds Clear
Heat Index 88 °F
Dew Point 74 °F
Humidity 76%
Rainfall 0.00 in
Snow Depth Not available.
UV 0 out of 12
Pollen 9.80 out of 12
Air Quality Not available.
Flu Activity Not available.
METAR K2W6 030110Z AUTO 19003KT 10SM CLR 28/20 A2991 RMK AO1

More Conditions Fewer Conditions

10-Day Weather Forecast

Almanac

Astronomy

Sep. 02, 2014 Rise Set
Actual Time 6:37 AM EDT 7:35 PM EDT
Civil Twilight 6:09 AM EDT 8:02 PM EDT
Nautical Twilight 5:37 AM EDT 8:34 PM EDT
Astronomical Twilight 5:04 AM EDT 9:07 PM EDT
Moon 2:13 PM EDT (9/2) No Moon Set
Length of Visible Light 13h 52m
Length of Day
12h 57m
Tomorrow will be 2m 24s shorter.
First Quarter, 57% of the Moon is Illuminated
Today
First Quarter
Sep 8
Full
Sep 15
Last Quarter
Sep 24
New
Oct 1
First Quarter

Today's Extremes

State Highs State Lows

Community

WunderPhotos

Upload Photos

1,749,829 photos uploaded!

Nearby

Snow Depth

Station Depth Elevation
No new snow has been reported.

Earthquake Activity

City Distance Mag. Time & Date
No recent earthquake activity has been reported nearby.
Minimum magnitude displayed is 2.5.

Coastal Water Temperatures

Place Temperature
Solomons Island, MD 82.0 °F
Lewisetta, VA 82.9 °F

Nearby Weather Stations